createdAt,value
2018-03-01T00:00:51.110Z,24.80
2018-03-01T00:03:18.639Z,23.57
2018-03-01T00:05:46.187Z,22.47
2018-03-01T00:08:13.728Z,25.33
2018-03-01T00:10:42.010Z,24.30
2018-03-01T00:13:10.249Z,24.90
2018-03-01T00:15:37.792Z,23.47
2018-03-01T00:18:05.262Z,24.20
2018-03-01T00:20:32.734Z,23.33
2018-03-01T00:23:00.271Z,24.80
2018-03-01T00:25:27.788Z,22.93
2018-03-01T00:27:55.393Z,24.20
2018-03-01T00:30:23.885Z,23.50
2018-03-01T00:32:51.365Z,23.67
2018-03-01T00:35:18.878Z,24.63
2018-03-01T00:37:47.171Z,24.67
2018-03-01T00:40:14.678Z,24.57
2018-03-01T00:42:42.151Z,23.60
2018-03-01T00:45:09.694Z,23.47
2018-03-01T00:47:37.162Z,24.30
2018-03-01T00:50:04.634Z,25.17
2018-03-01T00:52:32.186Z,23.27
2018-03-01T00:54:59.664Z,23.33
2018-03-01T00:57:27.183Z,22.70
2018-03-01T00:59:54.686Z,24.73
2018-03-01T01:02:22.208Z,23.57
2018-03-01T01:04:49.681Z,24.20
2018-03-01T01:07:17.185Z,25.40
2018-03-01T01:09:44.692Z,24.67
2018-03-01T01:12:12.198Z,23.13
2018-03-01T01:14:39.690Z,25.83
2018-03-01T01:17:07.929Z,24.57
2018-03-01T01:19:35.568Z,24.13
2018-03-01T01:22:03.079Z,24.77
2018-03-01T01:24:30.554Z,23.70
2018-03-01T01:26:58.107Z,25.13
2018-03-01T01:29:25.623Z,24.67
2018-03-01T01:31:53.135Z,24.27
2018-03-01T01:34:20.739Z,22.80
2018-03-01T01:36:48.250Z,23.90
2018-03-01T01:39:15.772Z,26.33
2018-03-01T01:41:43.275Z,27.00
2018-03-01T01:44:10.799Z,24.37
2018-03-01T01:46:38.364Z,23.57
2018-03-01T01:49:05.861Z,24.67
2018-03-01T01:51:33.388Z,24.43
2018-03-01T01:54:00.896Z,25.07
2018-03-01T01:56:29.228Z,22.57
2018-03-01T01:58:56.744Z,23.07
2018-03-01T02:01:24.226Z,24.47
2018-03-01T02:03:51.772Z,24.07
2018-03-01T02:06:19.279Z,23.27
2018-03-01T02:08:46.754Z,23.13
2018-03-01T02:11:14.291Z,23.47
2018-03-01T02:13:42.534Z,22.80
2018-03-01T02:16:10.334Z,23.60
2018-03-01T02:18:38.631Z,23.67
2018-03-01T02:21:06.143Z,24.20
2018-03-01T02:23:33.654Z,22.83
2018-03-01T02:26:01.191Z,23.60
2018-03-01T02:28:28.794Z,24.07
2018-03-01T02:30:56.283Z,23.00
2018-03-01T02:33:23.922Z,22.97
2018-03-01T02:35:51.465Z,20.10
2018-03-01T02:38:19.758Z,22.77
2018-03-01T02:40:47.268Z,23.43
2018-03-01T02:43:14.792Z,23.67
2018-03-01T02:45:42.258Z,23.50
2018-03-01T02:48:09.766Z,24.50
2018-03-01T02:50:37.254Z,24.17
2018-03-01T02:53:05.539Z,23.80
2018-03-01T02:55:33.810Z,24.07
2018-03-01T02:58:02.071Z,21.27
2018-03-01T03:00:29.558Z,24.63
2018-03-01T03:02:57.830Z,23.40
2018-03-01T03:05:26.120Z,23.77
2018-03-01T03:07:54.364Z,23.60
2018-03-01T03:10:21.904Z,23.53
2018-03-01T03:12:49.378Z,24.57
2018-03-01T03:15:16.923Z,24.07
2018-03-01T03:17:44.436Z,23.37
2018-03-01T03:20:12.682Z,23.53
2018-03-01T03:22:40.219Z,24.17
2018-03-01T03:25:07.723Z,23.00
2018-03-01T03:27:35.237Z,24.83
2018-03-01T03:30:02.753Z,24.17
2018-03-01T03:32:30.226Z,23.87
2018-03-01T03:34:57.829Z,23.93
2018-03-01T03:37:25.351Z,24.10
2018-03-01T03:39:52.823Z,25.40
2018-03-01T03:42:20.365Z,24.13
2018-03-01T03:44:47.882Z,24.93
2018-03-01T03:47:15.446Z,25.63
2018-03-01T03:49:43.011Z,24.90
2018-03-01T03:52:10.492Z,24.63
2018-03-01T03:54:37.966Z,25.33
2018-03-01T03:57:05.467Z,27.27
2018-03-01T03:59:33.707Z,26.87
2018-03-01T04:02:01.240Z,26.73
2018-03-01T04:04:29.577Z,27.03
2018-03-01T04:06:57.182Z,25.97
2018-03-01T04:09:24.696Z,25.97
2018-03-01T04:11:52.239Z,27.57
2018-03-01T04:14:19.752Z,25.23
2018-03-01T04:16:48.027Z,26.10
2018-03-01T04:19:16.303Z,26.27
2018-03-01T04:21:44.551Z,26.30
2018-03-01T04:24:12.028Z,26.77
2018-03-01T04:26:39.567Z,27.50
2018-03-01T04:29:07.087Z,26.23
2018-03-01T04:31:35.328Z,24.23
2018-03-01T04:34:02.850Z,26.20
2018-03-01T04:36:30.343Z,27.73
2018-03-01T04:38:57.873Z,25.97
2018-03-01T04:41:25.407Z,26.13
2018-03-01T04:43:53.646Z,26.67
2018-03-01T04:46:21.118Z,25.93
2018-03-01T04:48:48.626Z,26.03
2018-03-01T04:51:16.144Z,25.50
2018-03-01T04:53:43.654Z,26.97
2018-03-01T04:56:11.172Z,25.73
2018-03-01T04:58:38.641Z,26.20
2018-03-01T05:01:06.148Z,27.43
2018-03-01T05:03:33.632Z,27.17
2018-03-01T05:06:01.110Z,26.27
2018-03-01T05:08:28.663Z,27.17
2018-03-01T05:10:56.192Z,26.67
2018-03-01T05:13:23.703Z,24.57
2018-03-01T05:15:51.248Z,26.43
2018-03-01T05:18:18.722Z,27.13
2018-03-01T05:20:46.246Z,24.57
2018-03-01T05:23:13.772Z,26.87
2018-03-01T05:25:42.762Z,25.23
2018-03-01T05:28:10.243Z,24.40
2018-03-01T05:30:37.745Z,27.27
2018-03-01T05:33:05.238Z,24.43
2018-03-01T05:35:32.720Z,26.80
2018-03-01T05:38:00.263Z,27.93
2018-03-01T05:40:27.751Z,27.60
2018-03-01T05:42:55.271Z,28.27
2018-03-01T05:45:22.786Z,27.03
2018-03-01T05:47:51.072Z,24.67
2018-03-01T05:50:19.351Z,26.63
2018-03-01T05:52:47.618Z,27.80
2018-03-01T05:55:15.098Z,24.63
2018-03-01T05:57:43.401Z,26.77
2018-03-01T06:00:10.956Z,24.87
2018-03-01T06:02:38.504Z,25.63
2018-03-01T06:05:06.770Z,28.87
2018-03-01T06:07:35.053Z,27.90
2018-03-01T06:10:02.528Z,24.77
2018-03-01T06:12:30.824Z,25.77
2018-03-01T06:14:58.367Z,25.57
2018-03-01T06:17:26.644Z,27.77
2018-03-01T06:19:54.134Z,27.57
2018-03-01T06:22:21.644Z,24.03
2018-03-01T06:24:49.160Z,28.43
2018-03-01T06:27:16.646Z,26.90
2018-03-01T06:29:45.722Z,28.77
2018-03-01T06:32:13.198Z,23.53
2018-03-01T06:34:40.677Z,26.23
2018-03-01T06:37:08.233Z,26.33
2018-03-01T06:39:35.751Z,26.83
2018-03-01T06:42:04.003Z,24.87
2018-03-01T06:44:31.521Z,27.13
2018-03-01T06:46:59.006Z,26.07
2018-03-01T06:49:26.477Z,27.30
2018-03-01T06:51:53.982Z,25.37
2018-03-01T06:54:22.218Z,27.60
2018-03-01T06:56:49.697Z,24.30
2018-03-01T06:59:17.214Z,27.63
2018-03-01T07:01:44.723Z,28.07
2018-03-01T07:04:12.198Z,25.73
2018-03-01T07:06:39.743Z,27.50
2018-03-01T07:09:07.222Z,27.80
2018-03-01T07:11:34.740Z,25.57
2018-03-01T07:14:02.307Z,27.57
2018-03-01T07:16:29.785Z,28.53
2018-03-01T07:18:57.262Z,28.63
2018-03-01T07:21:24.758Z,26.90
2018-03-01T07:23:52.281Z,29.17
2018-03-01T07:26:19.816Z,24.67
2018-03-01T07:28:47.304Z,28.23
2018-03-01T07:31:14.819Z,24.00
2018-03-01T07:33:42.362Z,27.97
2018-03-01T07:36:10.652Z,27.90
2018-03-01T07:38:39.052Z,27.70
2018-03-01T07:41:06.535Z,27.23
2018-03-01T07:43:34.060Z,28.73
2018-03-01T07:46:02.326Z,28.67
2018-03-01T07:48:30.566Z,27.47
2018-03-01T07:50:58.086Z,26.93
2018-03-01T07:53:26.389Z,28.80
2018-03-01T07:55:53.866Z,27.63
2018-03-01T07:58:21.354Z,28.33
2018-03-01T08:00:48.893Z,28.20
2018-03-01T08:03:16.365Z,27.67
2018-03-01T08:05:43.846Z,27.57
2018-03-01T08:08:11.359Z,26.90
2018-03-01T08:10:38.837Z,27.73
2018-03-01T08:13:06.320Z,28.20
2018-03-01T08:15:33.825Z,27.83
2018-03-01T08:18:02.109Z,28.27
2018-03-01T08:20:30.406Z,27.03
2018-03-01T08:22:57.906Z,28.87
2018-03-01T08:25:25.476Z,26.87
2018-03-01T08:27:52.919Z,27.90
2018-03-01T08:30:20.472Z,28.00
2018-03-01T08:32:47.999Z,27.90
2018-03-01T08:35:16.271Z,26.47
2018-03-01T08:37:44.546Z,28.33
2018-03-01T08:40:12.825Z,27.40
2018-03-01T08:42:40.337Z,30.30
2018-03-01T08:45:07.880Z,29.47
2018-03-01T08:47:35.393Z,29.27
2018-03-01T08:50:03.021Z,29.50
2018-03-01T08:52:30.563Z,28.13
2018-03-01T08:54:58.828Z,29.03
2018-03-01T08:57:26.323Z,29.00
2018-03-01T08:59:53.880Z,29.50
2018-03-01T09:02:21.352Z,28.27
2018-03-01T09:04:48.911Z,28.73
2018-03-01T09:07:16.412Z,28.37
2018-03-01T09:09:44.039Z,28.83
2018-03-01T09:12:11.513Z,28.73
2018-03-01T09:14:39.030Z,28.97
2018-03-01T09:17:06.506Z,28.83
2018-03-01T09:19:34.820Z,28.83
2018-03-01T09:22:02.336Z,28.57
2018-03-01T09:24:30.623Z,28.67
2018-03-01T09:26:58.925Z,27.97
2018-03-01T09:29:26.446Z,28.63
2018-03-01T09:31:53.958Z,28.80
2018-03-01T09:34:21.453Z,27.87
2018-03-01T09:36:48.951Z,28.30
2018-03-01T09:39:17.190Z,29.37
2018-03-01T09:41:44.695Z,29.70
2018-03-01T09:44:12.940Z,29.33
2018-03-01T09:46:40.444Z,29.57
2018-03-01T09:49:08.755Z,29.37
2018-03-01T09:51:36.234Z,28.70
2018-03-01T09:54:03.719Z,32.70
2018-03-01T09:56:31.257Z,29.80
2018-03-01T09:58:58.771Z,29.20
2018-03-01T10:01:27.052Z,29.67
2018-03-01T10:03:55.351Z,31.30
2018-03-01T10:06:22.836Z,30.07
2018-03-01T10:08:50.352Z,28.80
2018-03-01T10:11:18.660Z,29.90
2018-03-01T10:13:46.134Z,30.43
2018-03-01T10:16:13.612Z,29.43
2018-03-01T10:18:41.151Z,29.03
2018-03-01T10:21:08.717Z,29.23
2018-03-01T10:23:36.283Z,29.67
2018-03-01T10:26:04.570Z,30.37
2018-03-01T10:28:37.658Z,29.40
2018-03-01T10:31:05.179Z,29.77
2018-03-01T10:33:45.977Z,29.97
2018-03-01T10:36:13.500Z,29.93
2018-03-01T10:38:42.126Z,29.33
2018-03-01T10:41:09.643Z,27.63
2018-03-01T10:43:37.243Z,30.20
2018-03-01T10:46:04.869Z,29.43
2018-03-01T10:48:32.350Z,29.80
2018-03-01T10:50:59.895Z,29.77
2018-03-01T10:53:27.370Z,31.20
2018-03-01T10:55:54.844Z,29.97
2018-03-01T10:58:23.122Z,30.13
2018-03-01T11:00:57.086Z,29.87
2018-03-01T11:03:24.594Z,30.83
2018-03-01T11:05:52.904Z,30.97
2018-03-01T11:08:20.427Z,30.23
2018-03-01T11:10:47.988Z,30.33
2018-03-01T11:13:15.505Z,28.60
2018-03-01T11:15:42.978Z,32.17
2018-03-01T11:18:10.490Z,30.10
2018-03-01T11:20:38.728Z,31.93
2018-03-01T11:23:06.207Z,31.03
2018-03-01T11:25:33.717Z,30.23
2018-03-01T11:28:01.287Z,29.27
2018-03-01T11:30:28.831Z,29.77
2018-03-01T11:32:57.110Z,30.67
2018-03-01T11:35:25.351Z,29.53
2018-03-01T11:37:52.862Z,30.03
2018-03-01T11:40:21.108Z,30.73
2018-03-01T11:42:48.578Z,29.00
2018-03-01T11:45:16.111Z,30.63
2018-03-01T11:47:43.577Z,29.47
2018-03-01T11:50:11.101Z,29.07
2018-03-01T11:52:38.640Z,30.37
2018-03-01T11:55:06.878Z,30.97
2018-03-01T11:57:34.407Z,29.57
2018-03-01T12:00:01.973Z,31.00
2018-03-01T12:02:29.451Z,29.07
2018-03-01T12:04:56.968Z,31.47
2018-03-01T12:07:24.504Z,30.20
2018-03-01T12:09:52.023Z,31.50
2018-03-01T12:12:19.531Z,31.13
2018-03-01T12:14:47.064Z,30.87
2018-03-01T12:17:14.545Z,31.60
2018-03-01T12:19:42.081Z,32.67
2018-03-01T12:22:09.593Z,31.47
2018-03-01T12:24:37.074Z,31.07
2018-03-01T12:27:05.355Z,32.00
2018-03-01T12:29:33.627Z,30.43
2018-03-01T12:32:01.135Z,32.13
2018-03-01T12:34:28.652Z,31.80
2018-03-01T12:36:56.167Z,30.33
2018-03-01T12:39:23.646Z,30.63
2018-03-01T12:41:51.149Z,32.47
2018-03-01T12:44:19.424Z,30.53
2018-03-01T12:46:46.949Z,32.60
2018-03-01T12:49:14.434Z,31.40
2018-03-01T12:51:41.966Z,32.70
2018-03-01T12:54:09.452Z,33.10
2018-03-01T12:56:36.959Z,32.40
2018-03-01T12:59:04.505Z,31.27
2018-03-01T13:01:32.743Z,32.30
2018-03-01T13:04:00.835Z,32.27
2018-03-01T13:06:28.384Z,32.17
2018-03-01T13:08:55.904Z,32.17
2018-03-01T13:11:24.184Z,32.03
2018-03-01T13:13:51.720Z,31.13
2018-03-01T13:16:19.202Z,31.13
2018-03-01T13:18:47.481Z,32.17
2018-03-01T13:21:15.799Z,33.20
2018-03-01T13:23:43.312Z,30.67
2018-03-01T13:26:10.828Z,32.80
2018-03-01T13:28:38.341Z,31.50
2018-03-01T13:34:06.972Z,30.87
2018-03-01T13:36:34.458Z,30.97
2018-03-01T13:39:01.975Z,32.57
2018-03-01T13:41:30.920Z,32.80
2018-03-01T13:43:58.398Z,32.47
2018-03-01T13:46:46.707Z,31.60
2018-03-01T13:49:14.194Z,31.30
2018-03-01T13:51:41.724Z,32.60
2018-03-01T13:54:09.235Z,31.50
2018-03-01T13:56:36.751Z,31.53
2018-03-01T13:59:04.238Z,32.77
2018-03-01T14:01:31.771Z,31.87
2018-03-01T14:03:59.255Z,33.57
2018-03-01T14:06:28.376Z,35.37
2018-03-01T14:09:02.616Z,35.07
2018-03-01T14:11:30.915Z,33.53
2018-03-01T14:14:01.256Z,34.37
2018-03-01T14:16:28.739Z,33.47
2018-03-01T14:19:13.067Z,31.53
2018-03-01T14:21:46.199Z,32.87
2018-03-01T14:24:13.808Z,32.97
2018-03-01T14:26:56.950Z,33.40
2018-03-01T14:32:28.361Z,32.67
2018-03-01T14:34:56.663Z,34.07
2018-03-01T14:37:24.232Z,31.80
2018-03-01T14:39:51.753Z,33.17
2018-03-01T14:42:20.055Z,32.60
2018-03-01T14:44:48.516Z,32.93
2018-03-01T14:47:15.999Z,33.73
2018-03-01T14:49:45.472Z,34.20
2018-03-01T14:52:13.007Z,33.37
2018-03-01T14:54:40.552Z,33.27
2018-03-01T14:57:08.116Z,33.70
2018-03-01T14:59:35.595Z,32.97
2018-03-01T15:02:03.076Z,32.40
2018-03-01T15:04:30.582Z,33.57
2018-03-01T15:06:58.944Z,32.83
2018-03-01T15:09:26.426Z,32.70
2018-03-01T15:11:54.694Z,31.30
2018-03-01T15:14:22.983Z,32.80
2018-03-01T15:16:51.260Z,33.43
2018-03-01T15:19:18.774Z,32.10
2018-03-01T15:21:46.257Z,32.07
2018-03-01T15:24:13.734Z,33.60
2018-03-01T15:26:41.271Z,32.77
2018-03-01T15:29:08.806Z,33.10
2018-03-01T15:31:36.356Z,33.17
2018-03-01T15:34:04.586Z,32.23
2018-03-01T15:36:32.055Z,32.67
2018-03-01T15:38:59.600Z,33.13
2018-03-01T15:41:27.114Z,32.43
2018-03-01T15:43:55.357Z,32.50
2018-03-01T15:46:22.896Z,32.80
2018-03-01T15:48:50.386Z,33.03
2018-03-01T15:51:18.671Z,32.73
2018-03-01T15:53:46.190Z,34.00
2018-03-01T15:56:13.708Z,34.37
2018-03-01T15:58:41.187Z,35.73
2018-03-01T16:01:09.458Z,33.07
2018-03-01T16:03:36.971Z,33.50
2018-03-01T16:06:04.482Z,33.50
2018-03-01T16:08:32.043Z,32.87
2018-03-01T16:10:59.556Z,33.77
2018-03-01T16:13:27.031Z,32.13
2018-03-01T16:15:54.569Z,32.63
2018-03-01T16:18:22.038Z,31.37
2018-03-01T16:20:49.698Z,34.83
2018-03-01T16:23:17.204Z,33.90
2018-03-01T16:25:44.676Z,32.30
2018-03-01T16:28:12.184Z,34.17
2018-03-01T16:30:39.748Z,32.30
2018-03-01T16:33:07.263Z,31.77
2018-03-01T16:35:34.776Z,33.77
2018-03-01T16:38:02.291Z,34.00
2018-03-01T16:40:29.767Z,32.77
2018-03-01T16:42:58.006Z,32.53
2018-03-01T16:45:25.518Z,32.70
2018-03-01T16:47:53.768Z,33.13
2018-03-01T16:50:21.280Z,33.47
2018-03-01T16:52:48.824Z,33.23
2018-03-01T16:55:17.058Z,32.53
2018-03-01T16:57:44.585Z,33.17
2018-03-01T17:00:12.115Z,33.40
2018-03-01T17:02:39.586Z,34.20
2018-03-01T17:05:07.825Z,32.87
2018-03-01T17:07:36.391Z,32.37
2018-03-01T17:10:03.994Z,33.20
2018-03-01T17:12:31.448Z,33.80
2018-03-01T17:14:58.997Z,33.30
2018-03-01T17:17:26.479Z,32.30
2018-03-01T17:19:54.004Z,35.37
2018-03-01T17:22:21.548Z,34.23
2018-03-01T17:24:49.064Z,33.60
2018-03-01T17:27:16.539Z,36.13
2018-03-01T17:29:44.146Z,36.97
2018-03-01T17:32:11.623Z,35.73
2018-03-01T17:34:39.155Z,34.47
2018-03-01T17:37:07.425Z,33.93
2018-03-01T17:39:35.720Z,32.90
2018-03-01T17:42:04.017Z,33.83
2018-03-01T17:44:31.520Z,33.83
2018-03-01T17:46:59.042Z,32.07
2018-03-01T17:49:26.551Z,35.63
2018-03-01T17:51:54.053Z,34.13
2018-03-01T17:54:22.331Z,36.90
2018-03-01T17:56:50.615Z,35.33
2018-03-01T17:59:18.149Z,36.53
2018-03-01T18:01:45.634Z,41.07
2018-03-01T18:04:13.931Z,38.30
2018-03-01T18:06:41.468Z,36.97
2018-03-01T18:09:10.366Z,35.80
2018-03-01T18:11:38.380Z,36.20
2018-03-01T18:14:06.525Z,35.37
2018-03-01T18:16:34.300Z,35.13
2018-03-01T18:19:01.825Z,34.07
2018-03-01T18:21:31.073Z,37.13
2018-03-01T18:23:58.559Z,35.73
2018-03-01T18:26:26.042Z,34.70
2018-03-01T18:28:53.591Z,34.27
2018-03-01T18:31:21.103Z,32.67
2018-03-01T18:33:49.342Z,32.80
2018-03-01T18:36:16.896Z,33.43
2018-03-01T18:38:44.407Z,33.70
2018-03-01T18:41:12.645Z,35.23
2018-03-01T18:43:40.149Z,34.03
2018-03-01T18:46:08.400Z,35.07
2018-03-01T18:48:35.877Z,34.97
2018-03-01T18:51:03.443Z,33.17
2018-03-01T18:53:30.918Z,33.07
2018-03-01T18:55:59.164Z,32.27
2018-03-01T18:58:26.708Z,34.23
2018-03-01T19:00:54.228Z,34.43
2018-03-01T19:03:22.466Z,34.13
2018-03-01T19:05:50.004Z,34.10
2018-03-01T19:08:17.521Z,33.13
2018-03-01T19:10:45.770Z,34.50
2018-03-01T19:13:13.331Z,34.33
2018-03-01T19:15:40.840Z,32.63
2018-03-01T19:18:09.114Z,34.57
2018-03-01T19:20:37.377Z,32.93
2018-03-01T19:23:06.403Z,33.50
2018-03-01T19:28:08.707Z,34.90
2018-03-01T19:30:36.207Z,33.80
2018-03-01T19:33:03.690Z,35.93
2018-03-01T19:35:31.203Z,34.67
2018-03-01T19:37:58.682Z,35.00
2018-03-01T19:40:26.190Z,34.83
2018-03-01T19:42:54.603Z,35.83
2018-03-01T19:45:22.120Z,35.00
2018-03-01T19:47:49.632Z,34.03
2018-03-01T19:50:17.468Z,33.03
2018-03-01T19:52:45.756Z,36.20
2018-03-01T19:55:13.998Z,35.17
2018-03-01T19:57:41.502Z,34.47
2018-03-01T20:00:09.748Z,33.90
2018-03-01T20:02:37.225Z,33.93
2018-03-01T20:05:04.867Z,34.13
2018-03-01T20:07:32.360Z,34.87
2018-03-01T20:10:00.672Z,33.40
2018-03-01T20:12:28.214Z,33.33
2018-03-01T20:14:56.463Z,32.13
2018-03-01T20:17:23.945Z,34.80
2018-03-01T20:19:51.463Z,33.40
2018-03-01T20:22:18.934Z,33.20
2018-03-01T20:24:46.455Z,34.87
2018-03-01T20:27:14.003Z,34.33
2018-03-01T20:29:42.294Z,35.67
2018-03-01T20:32:10.572Z,35.53
2018-03-01T20:34:38.839Z,36.07
2018-03-01T20:37:06.315Z,35.20
2018-03-01T20:39:34.612Z,33.57
2018-03-01T20:42:02.210Z,32.40
2018-03-01T20:44:29.705Z,33.40
2018-03-01T20:46:57.228Z,32.13
2018-03-01T20:49:24.744Z,33.63
2018-03-01T20:51:53.026Z,32.63
2018-03-01T20:54:21.275Z,34.17
2018-03-01T20:56:48.823Z,29.57
2018-03-01T20:59:16.338Z,32.93
2018-03-01T21:04:20.639Z,33.20
2018-03-01T21:06:48.738Z,33.83
2018-03-01T21:09:17.035Z,37.10
2018-03-01T21:11:45.343Z,35.70
2018-03-01T21:14:12.851Z,37.77
2018-03-01T21:16:41.147Z,36.57
2018-03-01T21:19:09.430Z,37.73
2018-03-01T21:21:37.675Z,37.00
2018-03-01T21:24:05.194Z,35.50
2018-03-01T21:26:32.711Z,36.07
2018-03-01T21:29:00.220Z,35.47
2018-03-01T21:31:27.733Z,34.90
2018-03-01T21:33:55.285Z,34.30
2018-03-01T21:36:22.912Z,34.37
2018-03-01T21:38:50.445Z,33.93
2018-03-01T21:41:17.956Z,33.97
2018-03-01T21:43:45.506Z,35.03
2018-03-01T21:46:14.870Z,35.60
2018-03-01T21:48:42.383Z,34.57
2018-03-01T21:51:09.920Z,34.47
2018-03-01T21:53:38.219Z,34.33
2018-03-01T21:56:05.732Z,33.93
2018-03-01T21:58:33.247Z,35.33
2018-03-01T22:01:00.727Z,34.10
2018-03-01T22:03:28.220Z,34.23
2018-03-01T22:05:55.829Z,34.13
2018-03-01T22:08:23.322Z,36.00
2018-03-01T22:10:50.859Z,34.07
2018-03-01T22:13:18.334Z,35.20
2018-03-01T22:15:45.838Z,35.10
2018-03-01T22:18:13.363Z,33.77
2018-03-01T22:20:40.839Z,33.07
2018-03-01T22:23:08.370Z,35.43
2018-03-01T22:25:35.911Z,36.00
2018-03-01T22:28:04.160Z,34.87
2018-03-01T22:30:31.634Z,33.10
2018-03-01T22:33:00.691Z,33.47
2018-03-01T22:35:28.166Z,33.83
2018-03-01T22:37:55.643Z,34.67
2018-03-01T22:40:23.184Z,32.97
2018-03-01T22:42:50.727Z,32.40
2018-03-01T22:45:18.248Z,33.47
2018-03-01T22:47:45.791Z,33.07
2018-03-01T22:50:13.311Z,33.50
2018-03-01T22:52:40.823Z,33.20
2018-03-01T22:55:08.365Z,33.67
2018-03-01T22:57:35.838Z,35.33
2018-03-01T23:00:03.367Z,33.67
2018-03-01T23:02:30.975Z,33.43
2018-03-01T23:04:58.600Z,34.10
2018-03-01T23:07:26.115Z,35.03
2018-03-01T23:09:53.653Z,34.87
2018-03-01T23:12:21.135Z,33.80
2018-03-01T23:14:48.628Z,34.50
2018-03-01T23:17:16.936Z,33.93
2018-03-01T23:19:44.490Z,33.83
2018-03-01T23:22:11.982Z,33.23
2018-03-01T23:24:39.532Z,34.33
2018-03-01T23:27:07.036Z,34.47
2018-03-01T23:29:34.662Z,32.83
2018-03-01T23:32:02.207Z,33.87
2018-03-01T23:34:29.724Z,34.67
2018-03-01T23:36:57.197Z,33.23
2018-03-01T23:39:24.731Z,34.73
2018-03-01T23:41:52.243Z,34.80
2018-03-01T23:44:20.555Z,33.17
2018-03-01T23:46:48.063Z,34.77
2018-03-01T23:49:16.080Z,34.80
2018-03-01T23:51:43.627Z,32.13
2018-03-01T23:54:11.122Z,33.90
2018-03-01T23:56:38.640Z,33.77
2018-03-01T23:59:06.936Z,32.93
